Northport, Maine
Current Conditions -  °F | °C
As of 4:35 AM on Saturday 29 Nov 2014 (Local Time) from KRKD Reporting Station
Clear Clear  
Wind Chill:   Ceiling: Unl
Heat Index: 16°   Visibility: 10mi
Dew Point: 10°   Wind: 8mph
Humidity: 79%   Direction: 280°W
Pressure: 30.22"   Gusts: NA
Location:  44.313°N, 69.0897°W
Report Text: KRKD 290935Z AUTO 28007KT 10SM CLR M09/M12 A3022 RMK AO1
Loading
Personal Weather Stations






























Interactive Weather Map New forecast layout! Learn more

10-Day Weather Forecast

Advertisements
Track Severe Weather on mobile